Time;durP1;ratioP1;P1;durP2;ratioP2;P2;SDS_P1;SDS_P2;PMS_P1;PMS_P2;Temp;Humidity;BMP_temperature;BMP_pressure;BME280_temperature;BME280_humidity;BME280_pressure;Samples;Min_cycle;Max_cycle;Signal;HPM_P1;HPM_P2
2022/07/21 00:01:48;;;;;;;1.50;1.20;;;26.90;42.00;;;;;;5093601;28;20098;-80
2022/07/21 00:04:15;;;;;;;1.25;1.10;;;26.90;42.10;;;;;;5092514;28;20054;-79
2022/07/21 00:06:41;;;;;;;0.95;0.90;;;26.80;42.20;;;;;;5093169;28;20464;-79
2022/07/21 00:09:07;;;;;;;2.65;1.05;;;26.80;42.30;;;;;;5095095;28;20107;-78
2022/07/21 00:11:33;;;;;;;2.97;1.13;;;26.80;42.30;;;;;;5095134;28;20055;-78
2022/07/21 00:13:58;;;;;;;2.88;1.25;;;26.70;42.30;;;;;;5094424;28;20085;-79
2022/07/21 00:16:24;;;;;;;4.10;1.13;;;26.60;42.40;;;;;;5093898;28;20061;-79
2022/07/21 00:18:50;;;;;;;1.08;0.98;;;26.60;42.40;;;;;;5093211;28;20358;-78
2022/07/21 00:21:15;;;;;;;2.83;1.25;;;26.60;42.60;;;;;;5093508;28;20040;-78
2022/07/21 00:23:41;;;;;;;2.05;0.95;;;26.60;42.70;;;;;;5093364;28;20444;-80
2022/07/21 00:26:07;;;;;;;1.10;1.00;;;26.50;42.70;;;;;;5093644;28;20035;-78
2022/07/21 00:28:32;;;;;;;4.60;0.98;;;26.50;42.80;;;;;;5093653;28;20192;-79
2022/07/21 00:30:58;;;;;;;1.65;1.13;;;26.40;42.80;;;;;;5093238;28;20059;-78
2022/07/21 00:33:24;;;;;;;3.08;1.20;;;26.40;42.90;;;;;;5092641;28;20107;-79
2022/07/21 00:35:49;;;;;;;2.80;1.42;;;26.30;43.10;;;;;;5092098;28;20425;-79
2022/07/21 00:38:15;;;;;;;2.75;1.67;;;26.30;43.10;;;;;;5093420;28;20034;-78
2022/07/21 00:40:41;;;;;;;2.05;1.13;;;26.30;43.20;;;;;;5093307;28;20059;-79
2022/07/21 00:43:06;;;;;;;5.25;1.67;;;26.30;43.20;;;;;;5092773;28;20051;-79
2022/07/21 00:45:32;;;;;;;1.50;1.25;;;26.30;43.30;;;;;;5093503;28;20028;-80
2022/07/21 00:47:58;;;;;;;3.70;1.38;;;26.30;43.50;;;;;;5092746;28;20028;-79
2022/07/21 00:50:24;;;;;;;2.90;1.50;;;26.30;43.50;;;;;;5093101;28;20028;-79
2022/07/21 00:52:50;;;;;;;1.45;1.35;;;26.20;43.50;;;;;;5092690;28;20103;-79
2022/07/21 00:55:18;;;;;;;1.20;1.10;;;26.10;43.60;;;;;;5092709;28;20060;-79
2022/07/21 00:57:45;;;;;;;1.33;1.20;;;26.00;43.90;;;;;;5125424;28;20358;-80
2022/07/21 01:00:18;;;;;;;2.03;1.63;;;26.00;43.90;;;;;;5092924;28;20035;-78
2022/07/21 01:02:44;;;;;;;1.83;1.10;;;26.00;44.00;;;;;;5093382;28;20107;-78
2022/07/21 01:05:14;;;;;;;1.52;1.30;;;26.00;44.00;;;;;;5093014;28;20051;-77
2022/07/21 01:07:44;;;;;;;;;;;25.90;44.10;;;;;;5093313;28;20039;-77
2022/07/21 01:10:12;;;;;;;1.58;1.10;;;25.90;44.30;;;;;;5092537;28;20276;-78
2022/07/21 01:12:39;;;;;;;2.42;1.70;;;25.80;44.40;;;;;;5091624;28;20088;-78
2022/07/21 01:15:07;;;;;;;3.33;1.75;;;25.80;44.40;;;;;;5092469;28;20389;-78
2022/07/21 01:17:33;;;;;;;2.13;1.60;;;25.90;44.40;;;;;;5092832;28;20024;-78
2022/07/21 01:20:03;;;;;;;3.08;1.60;;;25.70;44.90;;;;;;5092324;28;20418;-78
2022/07/21 01:22:29;;;;;;;3.63;1.73;;;25.80;44.80;;;;;;5092974;28;20040;-78
2022/07/21 01:24:55;;;;;;;1.73;1.35;;;25.70;45.00;;;;;;5092651;28;20039;-78
2022/07/21 01:27:27;;;;;;;4.47;1.92;;;25.70;45.20;;;;;;5092768;28;20020;-78
2022/07/21 01:29:53;;;;;;;2.13;1.70;;;25.60;45.40;;;;;;5092160;28;20048;-79
2022/07/21 01:32:19;;;;;;;3.80;1.95;;;25.50;45.50;;;;;;5092391;28;20111;-78
2022/07/21 01:34:45;;;;;;;4.68;1.80;;;25.50;45.70;;;;;;5093023;28;20061;-78
2022/07/21 01:37:11;;;;;;;4.50;2.17;;;25.50;46.00;;;;;;5092108;28;20164;-78
2022/07/21 01:42:20;;;;;;;5.97;2.70;;;25.40;46.10;;;;;;5092203;28;20039;-77
2022/07/21 01:44:47;;;;;;;3.92;1.73;;;25.40;46.30;;;;;;5091281;28;20024;-77
2022/07/21 01:47:13;;;;;;;4.32;2.47;;;25.30;46.30;;;;;;5093741;28;20486;-77
2022/07/21 01:49:38;;;;;;;2.47;1.83;;;25.30;46.50;;;;;;5096232;28;20020;-77
2022/07/21 01:52:04;;;;;;;3.60;1.80;;;25.30;46.60;;;;;;5095823;28;20027;-77
2022/07/21 01:54:30;;;;;;;2.85;1.50;;;25.30;47.00;;;;;;5096292;28;20383;-77
2022/07/21 01:56:56;;;;;;;1.98;1.40;;;25.30;47.10;;;;;;5095470;28;20024;-77
2022/07/21 01:59:21;;;;;;;3.55;1.40;;;25.20;47.90;;;;;;5096110;28;20032;-78
2022/07/21 02:01:47;;;;;;;3.17;1.67;;;25.20;47.70;;;;;;5095600;28;20032;-78
2022/07/21 02:04:12;;;;;;;2.22;1.38;;;25.10;48.00;;;;;;5095462;28;20028;-78
2022/07/21 02:06:38;;;;;;;4.82;1.65;;;25.20;48.10;;;;;;5095751;28;20073;-77
2022/07/21 02:09:04;;;;;;;2.08;1.40;;;25.10;48.30;;;;;;5095745;28;20028;-78
2022/07/21 02:11:29;;;;;;;2.50;1.50;;;25.10;48.40;;;;;;5095823;28;20419;-77
2022/07/21 02:13:55;;;;;;;3.20;1.40;;;25.00;48.50;;;;;;5095381;28;20466;-77
2022/07/21 02:16:21;;;;;;;1.70;1.45;;;25.10;48.60;;;;;;5095906;28;20112;-78
2022/07/21 02:18:47;;;;;;;4.20;1.50;;;25.00;48.90;;;;;;5095500;28;20024;-77
2022/07/21 02:21:13;;;;;;;2.55;1.45;;;25.00;49.40;;;;;;5095228;28;20384;-78
2022/07/21 02:23:38;;;;;;;2.72;1.65;;;24.80;49.40;;;;;;5095665;28;20024;-76
2022/07/21 02:26:04;;;;;;;4.60;1.77;;;24.80;49.90;;;;;;5095206;28;20492;-77
2022/07/21 02:28:30;;;;;;;2.72;1.58;;;24.70;49.60;;;;;;5094931;28;20066;-78
2022/07/21 02:30:56;;;;;;;2.67;1.67;;;24.70;50.20;;;;;;5094774;28;20122;-77
2022/07/21 02:33:21;;;;;;;6.22;2.40;;;24.60;50.60;;;;;;5095134;28;20027;-76
2022/07/21 02:35:47;;;;;;;3.53;2.08;;;24.60;51.00;;;;;;5095321;28;20028;-78
2022/07/21 02:38:13;;;;;;;4.30;2.05;;;24.50;51.30;;;;;;5094886;28;20069;-77
2022/07/21 02:40:40;;;;;;;3.33;1.80;;;24.40;51.50;;;;;;5095256;28;20139;-77
2022/07/21 02:43:06;;;;;;;2.70;1.92;;;24.30;51.90;;;;;;5094797;28;20031;-78
2022/07/21 02:45:32;;;;;;;5.30;2.67;;;24.30;51.80;;;;;;5095437;28;20032;-77
2022/07/21 02:48:05;;;;;;;5.35;2.53;;;24.30;52.80;;;;;;5094707;28;20020;-78
2022/07/21 02:50:33;;;;;;;4.28;2.40;;;24.30;52.80;;;;;;5095102;28;20082;-78
2022/07/21 02:53:00;;;;;;;2.45;1.90;;;24.30;52.90;;;;;;5094258;28;20518;-77
2022/07/21 02:55:27;;;;;;;3.60;2.17;;;24.20;53.10;;;;;;5095067;28;20082;-79
2022/07/21 02:58:13;;;;;;;3.25;2.05;;;24.20;52.90;;;;;;5094847;28;20050;-77
2022/07/21 03:00:47;;;;;;;4.53;2.20;;;24.20;53.60;;;;;;5093453;28;20361;-78
2022/07/21 03:03:14;;;;;;;3.50;1.75;;;24.10;53.40;;;;;;5094476;28;20028;-77
2022/07/21 03:05:40;;;;;;;1.65;1.30;;;24.10;53.50;;;;;;5094785;28;20028;-76
2022/07/21 03:08:06;;;;;;;3.42;1.90;;;24.20;53.30;;;;;;5094400;28;20110;-77
2022/07/21 03:10:32;;;;;;;4.82;1.65;;;24.20;53.10;;;;;;5093446;28;20032;-77
2022/07/21 03:12:58;;;;;;;2.17;1.50;;;24.10;53.80;;;;;;5093049;28;20020;-78
2022/07/21 03:15:25;;;;;;;2.28;1.63;;;24.00;53.80;;;;;;5094298;28;20456;-77
2022/07/21 03:17:52;;;;;;;2.75;1.67;;;24.10;54.00;;;;;;5094632;28;20473;-77
2022/07/21 03:20:17;;;;;;;3.85;2.15;;;24.00;54.10;;;;;;5092819;28;20020;-76
2022/07/21 03:22:43;;;;;;;2.70;1.38;;;24.00;54.20;;;;;;5094803;28;20368;-77
2022/07/21 03:25:08;;;;;;;5.28;1.75;;;24.00;54.30;;;;;;5094038;28;20024;-76
2022/07/21 03:27:36;;;;;;;3.50;1.60;;;24.00;54.30;;;;;;5094408;28;20468;-77
2022/07/21 03:30:07;;;;;;;3.72;1.70;;;24.00;54.70;;;;;;5094158;28;20036;-77
2022/07/21 03:32:32;;;;;;;;;;;24.00;54.90;;;;;;5094577;28;20067;-76
2022/07/21 03:34:58;;;;;;;3.53;1.70;;;23.90;55.10;;;;;;5092614;28;20269;-77
2022/07/21 03:37:23;;;;;;;3.15;1.83;;;23.90;54.90;;;;;;5093761;28;20533;-77
2022/07/21 03:39:49;;;;;;;6.15;1.75;;;23.90;55.40;;;;;;5094168;28;20028;-77
2022/07/21 03:42:14;;;;;;;3.90;2.15;;;23.80;55.70;;;;;;5093256;28;20068;-77
2022/07/21 03:44:40;;;;;;;3.08;2.05;;;23.80;55.60;;;;;;5093704;28;20050;-76
2022/07/21 03:47:06;;;;;;;3.80;1.77;;;23.90;55.90;;;;;;5093292;28;20024;-77
2022/07/21 03:49:31;;;;;;;2.45;1.80;;;23.80;55.90;;;;;;5093888;28;20407;-77
2022/07/21 03:51:57;;;;;;;3.88;1.70;;;23.80;55.90;;;;;;5093931;28;20032;-76
2022/07/21 03:54:23;;;;;;;2.63;1.88;;;23.70;56.30;;;;;;5093757;28;20119;-79
2022/07/21 03:56:48;;;;;;;2.78;1.60;;;23.70;56.50;;;;;;5093541;28;20051;-78
2022/07/21 03:59:14;;;;;;;3.00;1.58;;;23.70;56.80;;;;;;5092877;28;20024;-77
2022/07/21 04:01:39;;;;;;;2.70;1.98;;;23.90;56.40;;;;;;5093623;28;20480;-77
2022/07/21 04:04:05;;;;;;;2.08;1.90;;;23.90;56.40;;;;;;5092010;28;20023;-78
2022/07/21 04:06:31;;;;;;;3.42;2.00;;;23.90;56.50;;;;;;5093384;28;20020;-78
2022/07/21 04:08:56;;;;;;;1.90;1.60;;;24.00;55.90;;;;;;5093550;28;20039;-77
2022/07/21 04:11:22;;;;;;;3.15;1.73;;;24.00;55.40;;;;;;5092007;28;20086;-76
2022/07/21 04:13:48;;;;;;;1.90;1.70;;;24.10;55.20;;;;;;5093406;28;20376;-76
2022/07/21 04:16:13;;;;;;;4.80;1.67;;;24.10;54.90;;;;;;5093092;28;20031;-77
2022/07/21 04:18:39;;;;;;;2.63;1.85;;;24.20;54.70;;;;;;5093623;28;20042;-77
2022/07/21 04:21:05;;;;;;;3.53;1.88;;;24.20;54.30;;;;;;5092927;28;20035;-78
2022/07/21 04:23:31;;;;;;;3.30;2.00;;;24.30;54.10;;;;;;5092224;28;20031;-78
2022/07/21 04:25:57;;;;;;;2.65;1.40;;;24.40;54.20;;;;;;5093234;28;20102;-77
2022/07/21 04:28:22;;;;;;;2.38;1.50;;;24.50;53.80;;;;;;5092205;28;20097;-77
2022/07/21 04:30:48;;;;;;;6.10;2.50;;;24.60;53.50;;;;;;5090304;28;20181;-77
2022/07/21 04:33:14;;;;;;;3.75;1.90;;;24.70;52.80;;;;;;5091166;28;20040;-76
2022/07/21 04:35:39;;;;;;;3.22;2.05;;;24.80;52.60;;;;;;5092864;28;20027;-77
2022/07/21 04:38:05;;;;;;;1.92;1.52;;;24.90;52.30;;;;;;5088715;28;20062;-78
2022/07/21 04:40:31;;;;;;;2.53;2.05;;;25.00;51.70;;;;;;5092628;28;20107;-76
2022/07/21 04:42:56;;;;;;;2.20;1.80;;;25.10;51.50;;;;;;5092452;28;20060;-77
2022/07/21 04:45:22;;;;;;;2.50;1.90;;;25.30;51.50;;;;;;5091330;28;20110;-78
2022/07/21 04:47:54;;;;;;;2.13;1.42;;;25.30;51.10;;;;;;5077366;28;20477;-78
2022/07/21 04:50:23;;;;;;;2.70;1.73;;;25.50;51.20;;;;;;5072093;28;20021;-77
2022/07/21 04:52:50;;;;;;;5.25;1.98;;;25.70;50.60;;;;;;5076775;28;20066;-77
2022/07/21 04:55:16;;;;;;;2.63;1.83;;;25.80;50.80;;;;;;5085453;28;20080;-76
2022/07/21 04:57:48;;;;;;;2.05;1.60;;;26.00;49.40;;;;;;5093042;28;20039;-76
2022/07/21 05:00:16;;;;;;;3.10;1.67;;;26.10;49.20;;;;;;5091927;28;20089;-77
2022/07/21 05:02:42;;;;;;;3.08;1.77;;;26.30;48.90;;;;;;5092709;28;20039;-78
2022/07/21 05:05:08;;;;;;;3.95;1.60;;;26.50;48.80;;;;;;5092170;28;20034;-78
2022/07/21 05:07:34;;;;;;;3.17;1.75;;;26.60;48.00;;;;;;5092562;28;20132;-75
2022/07/21 05:10:04;;;;;;;3.00;1.95;;;26.80;47.90;;;;;;5092500;28;20464;-76
2022/07/21 05:12:29;;;;;;;2.90;1.60;;;27.10;47.40;;;;;;5091190;28;20111;-77
2022/07/21 05:14:55;;;;;;;3.40;1.88;;;27.20;46.80;;;;;;5092666;28;20059;-82
2022/07/21 05:17:21;;;;;;;2.83;1.98;;;27.40;46.50;;;;;;5092960;28;20036;-84
2022/07/21 05:19:49;;;;;;;2.25;1.70;;;27.60;46.40;;;;;;5093077;28;20031;-83
2022/07/21 05:22:18;;;;;;;4.20;1.98;;;27.80;46.20;;;;;;5094359;28;20032;-84
2022/07/21 05:24:44;;;;;;;4.25;2.10;;;28.00;46.30;;;;;;5097033;28;20028;-83
2022/07/21 05:27:10;;;;;;;5.85;1.92;;;28.30;45.70;;;;;;5096380;28;20376;-83
2022/07/21 05:29:36;;;;;;;1.98;1.63;;;28.50;44.80;;;;;;5097125;28;20048;-83
2022/07/21 05:32:01;;;;;;;4.35;2.13;;;28.80;45.00;;;;;;5096443;28;20039;-83
2022/07/21 05:34:27;;;;;;;2.63;1.90;;;29.10;44.80;;;;;;5096491;28;20024;-83
2022/07/21 05:36:53;;;;;;;3.38;2.05;;;29.40;44.50;;;;;;5096883;28;20028;-84
2022/07/21 05:39:19;;;;;;;3.45;2.03;;;29.60;44.40;;;;;;5095955;28;20024;-84
2022/07/21 05:41:45;;;;;;;5.22;2.13;;;29.90;44.00;;;;;;5097926;28;20044;-83
2022/07/21 05:44:11;;;;;;;2.35;1.98;;;30.10;43.90;;;;;;5105128;28;20028;-83
2022/07/21 05:46:36;;;;;;;2.38;1.98;;;30.20;43.50;;;;;;5101696;28;20064;-84
2022/07/21 05:49:03;;;;;;;4.05;2.63;;;30.40;43.70;;;;;;5116428;28;20068;-84
2022/07/21 05:51:28;;;;;;;3.90;2.20;;;30.60;43.50;;;;;;5119376;28;20059;-84
2022/07/21 05:53:54;;;;;;;2.53;2.17;;;30.60;43.10;;;;;;5103227;28;20027;-84
2022/07/21 05:56:19;;;;;;;4.45;2.65;;;30.90;43.30;;;;;;5095656;28;20484;-83
2022/07/21 05:58:45;;;;;;;3.83;2.30;;;31.20;42.70;;;;;;5097677;28;20028;-81
2022/07/21 06:01:16;;;;;;;7.88;2.50;;;31.40;42.70;;;;;;5105777;28;20532;-77
2022/07/21 06:03:43;;;;;;;;;;;31.60;42.30;;;;;;5106350;28;20024;-77
2022/07/21 06:06:10;;;;;;;4.25;2.83;;;31.90;42.40;;;;;;5115400;28;19904;-76
2022/07/21 06:08:38;;;;;;;3.40;2.40;;;32.20;42.40;;;;;;5099113;27;20028;-79
2022/07/21 06:11:04;;;;;;;3.30;2.42;;;32.40;42.10;;;;;;5111011;27;20384;-80
2022/07/21 06:13:29;;;;;;;3.28;2.50;;;32.60;42.50;;;;;;5103588;28;20068;-80
2022/07/21 06:15:55;;;;;;;6.68;2.67;;;32.80;42.50;;;;;;5103755;28;20484;-81
2022/07/21 06:18:21;;;;;;;2.95;2.25;;;33.00;42.20;;;;;;5110338;28;20019;-82
2022/07/21 06:20:46;;;;;;;3.22;2.78;;;33.10;41.70;;;;;;5099361;28;20032;-82
2022/07/21 06:23:12;;;;;;;3.58;2.88;;;33.20;41.70;;;;;;5109928;27;20027;-77
2022/07/21 06:25:38;;;;;;;3.75;2.33;;;33.30;41.50;;;;;;5114168;28;20035;-77
2022/07/21 06:28:04;;;;;;;10.38;2.42;;;33.50;41.60;;;;;;5102313;28;20047;-80
2022/07/21 06:30:29;;;;;;;4.32;3.50;;;33.50;41.50;;;;;;5093797;28;20040;-80
2022/07/21 06:32:56;;;;;;;3.42;2.65;;;33.60;42.10;;;;;;5097324;28;20101;-79
2022/07/21 06:35:22;;;;;;;5.28;3.75;;;33.70;41.60;;;;;;5108155;28;20036;-77
2022/07/21 06:37:47;;;;;;;4.90;2.78;;;33.80;41.50;;;;;;5094991;28;20024;-77
2022/07/21 06:40:13;;;;;;;3.72;2.70;;;33.80;41.70;;;;;;5111205;28;20455;-77
2022/07/21 06:42:39;;;;;;;3.28;2.67;;;33.90;41.70;;;;;;5145359;27;20035;-76
2022/07/21 06:45:05;;;;;;;9.23;3.33;;;34.10;41.60;;;;;;5097015;28;20024;-77
2022/07/21 06:47:31;;;;;;;4.38;3.30;;;34.10;41.10;;;;;;5094425;28;20051;-75
2022/07/21 06:50:02;;;;;;;5.72;3.33;;;34.20;41.20;;;;;;5094643;28;20028;-76
2022/07/21 06:52:32;;;;;;;3.88;2.70;;;34.20;41.20;;;;;;5094367;28;20035;-76
2022/07/21 06:54:57;;;;;;;6.10;2.83;;;34.40;41.00;;;;;;5094879;28;20418;-76
2022/07/21 06:57:23;;;;;;;2.90;2.70;;;34.60;41.10;;;;;;5103443;28;20053;-76
2022/07/21 06:59:49;;;;;;;4.70;3.45;;;34.70;40.20;;;;;;5096609;28;20024;-77
2022/07/21 07:02:15;;;;;;;5.45;3.00;;;34.90;40.30;;;;;;5095139;28;20452;-79
2022/07/21 07:04:43;;;;;;;3.75;3.00;;;35.10;40.10;;;;;;5096145;28;20032;-82
2022/07/21 07:07:09;;;;;;;5.05;2.65;;;35.10;39.80;;;;;;5103113;28;20066;-70
2022/07/21 07:09:35;;;;;;;3.15;2.78;;;35.30;39.50;;;;;;5114916;28;20027;-69
2022/07/21 07:12:03;;;;;;;3.45;2.78;;;35.50;39.40;;;;;;5098335;28;20395;-75
2022/07/21 07:14:30;;;;;;;5.35;2.90;;;35.90;39.00;;;;;;5094249;28;20027;-73
2022/07/21 07:16:56;;;;;;;4.97;2.95;;;35.90;38.80;;;;;;5094043;28;20032;-76
2022/07/21 07:19:22;;;;;;;5.93;3.20;;;36.10;38.90;;;;;;5093605;28;20058;-77
2022/07/21 07:21:47;;;;;;;3.95;2.85;;;36.40;38.50;;;;;;5094405;28;20376;-77
2022/07/21 07:24:13;;;;;;;6.18;3.08;;;36.70;38.10;;;;;;5093875;28;20024;-78
2022/07/21 07:26:38;;;;;;;3.25;2.95;;;36.50;38.10;;;;;;5094288;28;20021;-77
2022/07/21 07:29:04;;;;;;;3.95;2.92;;;36.60;37.90;;;;;;5094112;28;20112;-78
2022/07/21 07:31:30;;;;;;;3.38;2.60;;;36.60;38.00;;;;;;5093652;28;20414;-78
2022/07/21 07:33:57;;;;;;;4.72;2.58;;;36.80;38.20;;;;;;5093967;28;20032;-78
2022/07/21 07:36:24;;;;;;;4.30;3.15;;;36.60;37.40;;;;;;5093576;28;20024;-77
2022/07/21 07:38:51;;;;;;;3.15;2.50;;;36.40;37.90;;;;;;5093874;28;20027;-78
2022/07/21 07:41:18;;;;;;;5.28;3.28;;;36.50;37.60;;;;;;5093309;28;20032;-77
2022/07/21 07:43:43;;;;;;;3.90;2.72;;;36.30;37.50;;;;;;5093815;28;20030;-78
2022/07/21 07:46:10;;;;;;;6.22;3.22;;;36.30;37.50;;;;;;5092987;28;20024;-78
2022/07/21 07:48:37;;;;;;;4.78;3.10;;;36.40;37.10;;;;;;5093776;28;20109;-77
2022/07/21 07:51:03;;;;;;;3.10;2.47;;;36.40;37.20;;;;;;5093558;28;20028;-78
2022/07/21 07:53:29;;;;;;;5.05;2.72;;;36.60;37.60;;;;;;5093360;28;20054;-77
2022/07/21 07:55:55;;;;;;;3.00;2.70;;;36.60;37.10;;;;;;5093288;28;20024;-77
2022/07/21 07:58:20;;;;;;;3.58;2.80;;;36.60;37.20;;;;;;5093582;28;20081;-78
2022/07/21 08:00:46;;;;;;;3.17;2.83;;;36.70;37.40;;;;;;5093405;28;20063;-77
2022/07/21 08:03:12;;;;;;;2.85;2.55;;;36.60;36.90;;;;;;5092938;28;20028;-78
2022/07/21 08:05:38;;;;;;;2.85;2.60;;;36.70;37.20;;;;;;5093216;28;20068;-78
2022/07/21 08:08:03;;;;;;;4.82;2.80;;;36.90;37.70;;;;;;5092857;28;20028;-78
2022/07/21 08:10:30;;;;;;;3.97;3.28;;;37.20;37.50;;;;;;5092911;28;20345;-79
2022/07/21 08:12:55;;;;;;;6.22;2.70;;;37.20;37.00;;;;;;5093689;28;20566;-78
2022/07/21 08:15:21;;;;;;;4.32;2.83;;;37.10;36.80;;;;;;5092908;28;20032;-78
2022/07/21 08:17:47;;;;;;;2.72;2.50;;;37.60;36.60;;;;;;5092921;28;20024;-78
2022/07/21 08:20:13;;;;;;;5.90;3.10;;;37.90;36.10;;;;;;5092700;28;20020;-78
2022/07/21 08:22:38;;;;;;;4.72;2.72;;;38.30;35.50;;;;;;5092752;28;20032;-78
2022/07/21 08:25:05;;;;;;;4.30;2.63;;;38.20;35.20;;;;;;5091373;28;20036;-80
2022/07/21 08:27:31;;;;;;;3.95;2.33;;;38.80;34.80;;;;;;5092232;28;20032;-79
2022/07/21 08:29:56;;;;;;;3.22;2.35;;;39.30;33.90;;;;;;5092749;28;20538;-78
2022/07/21 08:32:22;;;;;;;5.50;3.00;;;39.80;33.50;;;;;;5092685;28;20081;-80
2022/07/21 08:34:48;;;;;;;2.65;2.42;;;39.30;33.50;;;;;;5092964;28;20077;-79
2022/07/21 08:37:14;;;;;;;3.50;2.42;;;39.40;33.30;;;;;;5092205;28;20333;-80
2022/07/21 08:39:39;;;;;;;3.35;2.10;;;39.80;33.30;;;;;;5092967;28;20103;-78
2022/07/21 08:42:08;;;;;;;4.03;2.70;;;40.00;33.30;;;;;;5091575;28;20215;-79
2022/07/21 08:44:34;;;;;;;2.50;2.20;;;40.10;32.40;;;;;;5092092;28;20168;-79
2022/07/21 08:47:00;;;;;;;5.00;2.47;;;40.10;32.90;;;;;;5091222;28;20464;-80
2022/07/21 08:49:27;;;;;;;3.20;2.47;;;40.00;33.10;;;;;;5091768;28;20089;-78
2022/07/21 08:51:53;;;;;;;3.30;2.67;;;39.90;32.60;;;;;;5092820;28;20064;-78
2022/07/21 08:54:22;;;;;;;2.85;2.50;;;39.80;32.50;;;;;;5092393;28;20028;-78
2022/07/21 08:56:48;;;;;;;3.15;2.38;;;39.20;33.00;;;;;;5092116;28;20428;-80
2022/07/21 08:59:14;;;;;;;5.15;2.60;;;38.30;33.80;;;;;;5092249;28;20016;-80
2022/07/21 09:01:40;;;;;;;3.10;2.20;;;37.50;34.10;;;;;;5092691;28;20043;-79
2022/07/21 09:04:30;;;;;;;3.38;2.50;;;36.80;34.30;;;;;;5092740;28;20028;-79
2022/07/21 09:07:01;;;;;;;2.90;2.65;;;36.40;35.50;;;;;;5092922;28;20354;-79
2022/07/21 09:09:28;;;;;;;3.33;3.03;;;35.90;36.50;;;;;;5092309;28;20491;-79
2022/07/21 09:11:54;;;;;;;5.10;2.70;;;35.70;36.70;;;;;;5092845;28;20028;-79
2022/07/21 09:14:32;;;;;;;4.57;2.47;;;35.50;37.20;;;;;;5092417;28;20032;-79
2022/07/21 09:17:01;;;;;;;2.70;2.50;;;35.50;37.50;;;;;;5093798;28;20047;-79
2022/07/21 09:19:35;;;;;;;3.47;2.55;;;35.30;38.30;;;;;;5093545;28;20035;-79
2022/07/21 09:22:11;;;;;;;3.38;2.60;;;35.00;37.50;;;;;;5073613;28;20085;-80
2022/07/21 09:24:40;;;;;;;4.43;2.83;;;34.70;37.80;;;;;;5072735;28;20055;-78
2022/07/21 09:27:31;;;;;;;2.70;2.20;;;34.70;38.50;;;;;;5072715;28;20028;-79
2022/07/21 09:29:58;;;;;;;3.55;2.83;;;34.70;38.30;;;;;;5072910;28;20417;-80
2022/07/21 09:32:30;;;;;;;3.95;2.00;;;34.70;38.70;;;;;;5072454;28;20032;-80
2022/07/21 09:35:00;;;;;;;4.03;2.33;;;34.70;38.80;;;;;;5072686;28;20028;-78
2022/07/21 09:37:26;;;;;;;3.42;3.10;;;34.60;38.40;;;;;;5072411;28;20541;-79
2022/07/21 09:40:04;;;;;;;6.38;2.83;;;34.40;38.80;;;;;;5072478;28;20035;-80
2022/07/21 09:42:38;;;;;;;4.22;2.53;;;34.40;38.80;;;;;;5072311;28;20039;-80
2022/07/21 09:45:12;;;;;;;4.78;2.50;;;34.50;39.00;;;;;;5072634;28;20482;-79
2022/07/21 09:47:39;;;;;;;4.90;2.72;;;34.40;39.40;;;;;;5072469;28;20021;-79
2022/07/21 09:50:07;;;;;;;4.35;2.63;;;34.40;39.90;;;;;;5073148;28;20036;-79
2022/07/21 09:52:38;;;;;;;3.00;2.58;;;34.40;40.10;;;;;;5105290;28;20066;-79
2022/07/21 09:55:05;;;;;;;5.05;3.08;;;34.60;40.40;;;;;;5073289;28;20024;-78
2022/07/21 09:57:31;;;;;;;4.28;2.40;;;34.60;39.30;;;;;;5072423;28;20028;-78
2022/07/21 09:59:57;;;;;;;3.30;2.67;;;34.70;39.80;;;;;;5073005;28;20429;-78
2022/07/21 10:02:26;;;;;;;4.15;2.85;;;34.70;39.50;;;;;;5072600;28;20108;-78
2022/07/21 10:05:13;;;;;;;3.03;2.60;;;34.60;39.70;;;;;;5072900;28;20029;-79
2022/07/21 10:07:41;;;;;;;3.95;3.15;;;34.70;40.10;;;;;;5072291;28;20076;-78
2022/07/21 10:10:08;;;;;;;4.57;3.03;;;34.70;40.10;;;;;;5075873;28;20029;-78
2022/07/21 10:12:34;;;;;;;3.55;2.42;;;34.70;39.80;;;;;;5076814;28;20064;-78
2022/07/21 10:15:00;;;;;;;3.10;2.70;;;34.60;39.50;;;;;;5088812;28;20071;-78
2022/07/21 10:17:26;;;;;;;4.22;3.13;;;34.60;39.70;;;;;;5097128;28;20028;-79
2022/07/21 10:20:07;;;;;;;4.93;3.05;;;34.60;39.90;;;;;;5096875;28;20376;-78
2022/07/21 10:22:54;;;;;;;2.88;2.58;;;34.50;39.90;;;;;;5095697;28;20031;-79
2022/07/21 10:25:21;;;;;;;3.50;2.55;;;34.60;39.70;;;;;;5096005;28;20502;-79
2022/07/21 10:28:13;;;;;;;4.13;3.35;;;34.70;40.50;;;;;;5096515;28;20043;-79
2022/07/21 10:30:42;;;;;;;3.78;2.80;;;34.70;40.40;;;;;;5095888;28;20086;-79
2022/07/21 10:33:08;;;;;;;4.35;3.28;;;34.60;39.60;;;;;;5096467;28;20039;-79
2022/07/21 10:35:34;;;;;;;2.92;2.63;;;34.60;39.70;;;;;;5095950;28;20020;-79
2022/07/21 10:38:03;;;;;;;5.72;3.03;;;34.50;39.30;;;;;;5095205;28;20495;-79
2022/07/21 10:40:29;;;;;;;6.10;3.30;;;34.60;39.50;;;;;;5095507;28;20025;-79
2022/07/21 10:43:00;;;;;;;3.33;2.75;;;34.40;38.50;;;;;;5094790;28;20365;-80
2022/07/21 10:45:42;;;;;;;2.95;2.67;;;34.40;38.70;;;;;;5094729;28;20384;-78
2022/07/21 10:48:28;;;;;;;2.85;2.53;;;34.40;40.00;;;;;;5095512;28;20076;-79
2022/07/21 10:50:58;;;;;;;4.18;3.38;;;34.30;40.30;;;;;;5095022;28;20614;-79
2022/07/21 10:53:23;;;;;;;5.30;2.63;;;34.40;39.90;;;;;;5095013;28;20028;-79
2022/07/21 10:55:54;;;;;;;4.22;3.13;;;34.40;39.30;;;;;;5095069;28;20045;-79
2022/07/21 10:58:32;;;;;;;5.22;3.33;;;34.30;39.40;;;;;;5094842;28;20024;-79
2022/07/21 11:01:19;;;;;;;3.80;2.97;;;34.30;40.20;;;;;;5095224;28;20497;-79
2022/07/21 11:03:45;;;;;;;5.18;3.42;;;34.30;40.40;;;;;;5095451;28;20032;-79
2022/07/21 11:06:23;;;;;;;3.72;2.88;;;34.20;40.50;;;;;;5095001;28;20356;-79
2022/07/21 11:09:02;;;;;;;5.85;3.10;;;34.20;40.60;;;;;;5095411;28;20024;-80
2022/07/21 11:11:33;;;;;;;5.70;3.38;;;34.20;40.60;;;;;;5094758;28;20099;-78
2022/07/21 11:14:12;;;;;;;3.55;2.97;;;34.10;40.70;;;;;;5094874;28;20031;-79
2022/07/21 11:19:40;;;;;;;5.68;3.50;;;34.20;41.20;;;;;;5094409;28;20380;-78
2022/07/21 11:22:18;;;;;;;4.18;2.78;;;34.20;41.00;;;;;;5094739;28;20032;-78
2022/07/21 11:24:56;;;;;;;5.05;3.22;;;34.20;41.00;;;;;;5094356;28;20024;-79
2022/07/21 11:27:24;;;;;;;3.17;2.85;;;34.20;41.10;;;;;;5094614;28;20031;-79
2022/07/21 11:29:54;;;;;;;4.78;3.47;;;34.20;40.30;;;;;;5094189;28;20134;-80
2022/07/21 11:32:20;;;;;;;4.65;2.50;;;34.20;39.90;;;;;;5094725;28;20028;-80
2022/07/21 11:34:53;;;;;;;3.92;2.78;;;34.30;39.90;;;;;;5094189;28;20035;-79
2022/07/21 11:37:26;;;;;;;5.32;2.85;;;34.30;39.60;;;;;;5094435;28;20433;-79
2022/07/21 11:39:52;;;;;;;4.18;3.10;;;34.30;39.90;;;;;;5094732;28;20021;-79
2022/07/21 11:42:18;;;;;;;3.15;2.83;;;34.40;40.20;;;;;;5094468;28;20085;-79
2022/07/21 11:44:44;;;;;;;4.00;3.10;;;34.50;39.90;;;;;;5093628;28;20028;-79
2022/07/21 11:47:14;;;;;;;4.40;3.58;;;34.60;39.50;;;;;;5094374;28;20154;-79
2022/07/21 11:49:41;;;;;;;4.22;3.00;;;34.60;39.90;;;;;;5092355;28;20418;-79
2022/07/21 11:52:09;;;;;;;5.20;3.30;;;34.60;39.30;;;;;;5094407;28;20039;-80
2022/07/21 11:54:38;;;;;;;4.45;3.00;;;34.80;39.80;;;;;;5094029;28;20024;-79
2022/07/21 11:57:06;;;;;;;4.05;3.10;;;34.90;39.00;;;;;;5094366;28;20028;-79
2022/07/21 11:59:33;;;;;;;4.47;3.17;;;35.00;39.50;;;;;;5093702;28;20055;-79
2022/07/21 12:02:07;;;;;;;4.60;2.90;;;35.00;38.40;;;;;;5093893;28;20081;-79
2022/07/21 12:04:59;;;;;;;3.17;2.65;;;35.00;38.70;;;;;;5093335;28;20115;-80
2022/07/21 12:07:38;;;;;;;8.20;2.90;;;35.00;38.90;;;;;;5093260;28;20024;-79
2022/07/21 12:10:08;;;;;;;3.58;2.72;;;35.00;40.10;;;;;;5093403;28;20376;-79
2022/07/21 12:12:45;;;;;;;3.42;2.80;;;34.90;40.00;;;;;;5093105;28;20026;-80
2022/07/21 12:15:15;;;;;;;3.63;2.80;;;34.90;39.60;;;;;;5093760;28;20028;-80
2022/07/21 12:17:49;;;;;;;3.40;3.08;;;34.90;39.30;;;;;;5093311;28;20465;-80
2022/07/21 12:20:24;;;;;;;4.15;2.90;;;34.90;39.20;;;;;;5093746;28;20053;-79
2022/07/21 12:22:50;;;;;;;4.50;3.35;;;34.80;39.50;;;;;;5092994;28;20028;-79
2022/07/21 12:25:17;;;;;;;3.42;3.00;;;34.80;40.30;;;;;;5093823;28;20150;-79
2022/07/21 12:27:49;;;;;;;7.70;2.95;;;34.80;40.20;;;;;;5093477;28;20099;-80
2022/07/21 12:30:35;;;;;;;4.28;3.55;;;34.70;40.40;;;;;;5092251;28;20040;-80
2022/07/21 12:33:04;;;;;;;3.95;3.35;;;34.80;40.50;;;;;;5092586;28;20046;-80
2022/07/21 12:35:31;;;;;;;3.50;3.03;;;34.70;40.20;;;;;;5093074;28;20104;-80
2022/07/21 12:38:18;;;;;;;3.38;2.88;;;34.70;40.30;;;;;;5093226;28;20039;-80
2022/07/21 12:40:50;;;;;;;6.20;3.35;;;34.60;39.90;;;;;;5092960;28;20027;-79
2022/07/21 12:43:20;;;;;;;4.95;3.10;;;34.50;40.10;;;;;;5093231;28;20056;-80
2022/07/21 12:46:02;;;;;;;4.65;3.55;;;34.50;40.20;;;;;;5093301;28;20114;-80
2022/07/21 12:48:29;;;;;;;3.42;3.13;;;34.40;40.30;;;;;;5092661;28;20541;-79
2022/07/21 12:51:14;;;;;;;3.90;3.30;;;34.40;40.60;;;;;;5093156;28;20460;-79
2022/07/21 12:53:54;;;;;;;9.55;3.17;;;34.40;40.60;;;;;;5091604;28;20069;-80
2022/07/21 12:56:29;;;;;;;5.03;2.65;;;34.50;41.30;;;;;;5093141;28;20032;-79
2022/07/21 12:58:58;;;;;;;4.00;3.05;;;34.40;40.80;;;;;;5093232;28;20025;-80